Time;durP1;ratioP1;P1;durP2;ratioP2;P2;SDS_P1;SDS_P2;PMS_P1;PMS_P2;Temp;Humidity;BMP_temperature;BMP_pressure;BME280_temperature;BME280_humidity;BME280_pressure;Samples;Min_cycle;Max_cycle;Signal;HPM_P1;HPM_P2
2021/05/31 00:00:22;;;;;;;3.00;1.10;;;23.10;99.90;;;;;;5039971;28;20235;-92
2021/05/31 00:02:55;;;;;;;1.93;1.10;;;22.70;99.90;;;;;;5042917;28;20213;-95
2021/05/31 00:05:45;;;;;;;2.35;1.10;;;22.90;99.90;;;;;;5305646;23;10002213;-92
2021/05/31 00:08:27;;;;;;;3.33;1.33;;;23.00;99.90;;;;;;5313200;23;20483;-96
2021/05/31 00:13:45;;;;;;;1.63;1.03;;;23.10;99.90;;;;;;5032265;28;20446;-96
2021/05/31 00:16:21;;;;;;;1.50;1.10;;;23.30;99.90;;;;;;5032522;28;20261;-95
2021/05/31 00:37:36;;;;;;;3.17;1.17;;;23.80;99.90;;;;;;4961646;28;20223;-94
2021/05/31 00:40:08;;;;;;;4.10;1.40;;;23.70;99.90;;;;;;4946366;29;20239;-96
2021/05/31 00:42:39;;;;;;;1.70;1.10;;;23.60;99.90;;;;;;4939194;28;20298;-96
2021/05/31 00:54:03;;;;;;;2.00;1.10;;;23.50;99.90;;;;;;5780046;23;20233;-96
2021/05/31 00:56:34;;;;;;;2.20;1.03;;;23.50;99.90;;;;;;5034920;28;20209;-96
2021/05/31 00:59:05;;;;;;;2.37;1.30;;;23.60;99.90;;;;;;5037426;28;20218;-96
2021/05/31 01:01:37;;;;;;;3.27;1.20;;;23.70;99.90;;;;;;5035361;28;20245;-96
2021/05/31 01:04:10;;;;;;;2.53;1.50;;;23.90;99.90;;;;;;5090128;23;20250;-94
2021/05/31 01:06:48;;;;;;;2.07;1.33;;;23.90;99.90;;;;;;4983583;28;20203;-95
2021/05/31 01:09:28;;;;;;;3.13;1.20;;;23.90;99.90;;;;;;4986718;28;20227;-96
2021/05/31 01:12:08;;;;;;;2.57;1.20;;;24.10;99.90;;;;;;4971240;28;20199;-95
2021/05/31 01:14:48;;;;;;;1.70;1.20;;;24.40;99.90;;;;;;4975850;28;20211;-94
2021/05/31 01:17:23;;;;;;;3.27;2.00;;;25.00;99.90;;;;;;4985842;28;20226;-95
2021/05/31 01:20:23;;;;;;;4.20;2.07;;;25.50;99.90;;;;;;4979751;28;20320;-96
2021/05/31 01:22:56;;;;;;;5.10;3.40;;;25.90;99.90;;;;;;4991390;28;20242;-94
2021/05/31 01:25:45;;;;;;;6.07;1.80;;;26.70;99.90;;;;;;4984636;28;20234;-93
2021/05/31 01:28:53;;;;;;;3.07;1.30;;;27.60;99.90;;;;;;4992179;28;20207;-94
2021/05/31 01:31:30;;;;;;;2.87;1.40;;;28.50;99.90;;;;;;4977359;28;20199;-93
2021/05/31 01:36:46;;;;;;;1.53;1.10;;;28.60;99.60;;;;;;5577511;23;20498;-93
2021/05/31 01:39:22;;;;;;;1.83;1.20;;;29.00;99.10;;;;;;5062612;28;20212;-95
2021/05/31 01:41:53;;;;;;;3.47;1.33;;;29.20;99.40;;;;;;5062362;28;20312;-92
2021/05/31 01:44:26;;;;;;;2.50;1.73;;;29.10;99.50;;;;;;5060914;28;20217;-92
2021/05/31 01:46:58;;;;;;;1.77;1.30;;;29.60;98.60;;;;;;5061174;28;20272;-93
2021/05/31 01:49:30;;;;;;;3.40;1.20;;;29.20;98.60;;;;;;5058946;28;20593;-96
2021/05/31 01:52:01;;;;;;;4.77;1.50;;;29.30;98.90;;;;;;5057378;28;20208;-94
2021/05/31 01:54:33;;;;;;;5.47;1.63;;;29.30;98.30;;;;;;5064506;28;20208;-95
2021/05/31 01:57:04;;;;;;;4.10;1.80;;;29.40;99.10;;;;;;5049336;28;20197;-96
2021/05/31 01:59:39;;;;;;;2.03;1.40;;;29.50;98.30;;;;;;5057006;28;20689;-90
2021/05/31 02:02:11;;;;;;;5.17;1.60;;;29.40;98.40;;;;;;5024224;28;20224;-89
2021/05/31 02:04:42;;;;;;;4.30;1.30;;;29.10;98.40;;;;;;5038147;28;20817;-93
2021/05/31 02:07:13;;;;;;;3.83;2.00;;;28.60;99.00;;;;;;5047013;28;20621;-92
2021/05/31 02:09:45;;;;;;;3.73;1.30;;;28.90;99.10;;;;;;5042599;28;20319;-91
2021/05/31 02:12:18;;;;;;;2.10;1.53;;;29.00;98.60;;;;;;5060708;28;20635;-94
2021/05/31 02:14:57;;;;;;;3.07;1.40;;;28.70;98.70;;;;;;5042240;28;20237;-90
2021/05/31 02:17:35;;;;;;;3.23;1.80;;;28.30;99.90;;;;;;5061684;28;20227;-92
2021/05/31 02:20:08;;;;;;;1.93;1.40;;;28.20;99.90;;;;;;5051105;28;20208;-90
2021/05/31 02:22:41;;;;;;;1.70;1.47;;;27.20;99.90;;;;;;5056262;28;20236;-90
2021/05/31 02:25:13;;;;;;;4.00;1.70;;;26.90;99.90;;;;;;5053678;28;20282;-89
2021/05/31 02:27:47;;;;;;;2.57;1.60;;;26.30;99.90;;;;;;5049721;28;20213;-90
2021/05/31 02:30:24;;;;;;;8.17;2.43;;;25.70;99.90;;;;;;5058270;28;20661;-90
2021/05/31 02:32:56;;;;;;;2.40;1.47;;;25.10;99.90;;;;;;5050870;28;20228;-90
2021/05/31 02:38:15;;;;;;;2.63;1.73;;;23.80;99.90;;;;;;5046850;28;20232;-89
2021/05/31 02:40:47;;;;;;;4.23;1.73;;;23.30;99.90;;;;;;5027147;28;20324;-89
2021/05/31 02:43:18;;;;;;;4.33;2.10;;;22.70;99.90;;;;;;5053887;28;20224;-89
2021/05/31 02:45:51;;;;;;;4.93;1.90;;;22.40;99.90;;;;;;5045312;28;20315;-90
2021/05/31 02:48:23;;;;;;;4.17;1.47;;;22.20;99.90;;;;;;5046790;28;20621;-90
2021/05/31 02:50:56;;;;;;;4.00;1.70;;;22.00;99.90;;;;;;5048621;28;20216;-89
2021/05/31 02:53:29;;;;;;;2.63;1.60;;;21.70;99.90;;;;;;5055744;28;20287;-89
2021/05/31 02:56:02;;;;;;;5.40;1.60;;;21.60;99.90;;;;;;5063276;28;20204;-90
2021/05/31 02:58:43;;;;;;;4.03;1.70;;;21.50;99.90;;;;;;5053659;28;20264;-89
2021/05/31 03:01:20;;;;;;;1.70;1.40;;;21.40;99.90;;;;;;5014708;28;20238;-90
2021/05/31 03:03:53;;;;;;;2.90;1.63;;;21.30;99.90;;;;;;5045323;28;20284;-91
2021/05/31 03:06:28;;;;;;;1.50;1.40;;;21.20;99.90;;;;;;5060526;28;20294;-90
2021/05/31 03:09:00;;;;;;;2.37;1.67;;;21.10;99.90;;;;;;5060989;28;20279;-89
2021/05/31 03:11:34;;;;;;;3.83;1.90;;;21.00;99.90;;;;;;5065264;28;20204;-89
2021/05/31 03:14:04;;;;;;;4.70;1.73;;;21.00;99.90;;;;;;5045857;28;20207;-90
2021/05/31 03:16:37;;;;;;;2.70;1.90;;;20.90;99.90;;;;;;5055877;28;20228;-89
2021/05/31 03:19:08;;;;;;;3.67;1.83;;;20.90;99.90;;;;;;5034697;28;20197;-89
2021/05/31 03:21:38;;;;;;;4.90;1.63;;;20.80;99.90;;;;;;5056418;28;20300;-89
2021/05/31 03:24:11;;;;;;;5.67;1.87;;;20.60;99.90;;;;;;5055360;28;20205;-90
2021/05/31 03:26:42;;;;;;;1.90;1.60;;;20.50;99.90;;;;;;5056400;28;20255;-89
2021/05/31 03:29:12;;;;;;;3.70;1.80;;;20.40;99.90;;;;;;5054958;28;20212;-90
2021/05/31 03:31:44;;;;;;;2.90;1.90;;;20.30;99.90;;;;;;5055517;28;20239;-89
2021/05/31 03:34:15;;;;;;;3.00;1.50;;;20.20;99.90;;;;;;5054523;28;20208;-91
2021/05/31 03:36:47;;;;;;;4.53;1.80;;;20.10;99.90;;;;;;5041053;28;20212;-90
2021/05/31 03:39:18;;;;;;;2.90;1.70;;;19.90;99.90;;;;;;5008287;28;20296;-90
2021/05/31 03:41:49;;;;;;;2.93;1.83;;;19.90;99.90;;;;;;5055053;28;20235;-90
2021/05/31 03:44:20;;;;;;;4.63;1.70;;;19.60;99.90;;;;;;5053789;28;20240;-90
2021/05/31 03:46:52;;;;;;;2.23;1.70;;;19.40;99.90;;;;;;5054482;28;20781;-90
2021/05/31 03:49:23;;;;;;;2.17;1.50;;;19.20;99.90;;;;;;5055580;28;20206;-89
2021/05/31 03:51:54;;;;;;;3.30;1.90;;;19.00;99.90;;;;;;5055611;28;20214;-90
2021/05/31 03:54:27;;;;;;;2.77;1.80;;;18.90;99.90;;;;;;5053243;28;20570;-90
2021/05/31 03:56:57;;;;;;;3.47;1.73;;;18.90;99.90;;;;;;5054283;28;20208;-90
2021/05/31 03:59:29;;;;;;;4.00;2.07;;;18.70;99.90;;;;;;5052823;28;20264;-90
2021/05/31 04:02:02;;;;;;;3.00;1.80;;;18.60;99.90;;;;;;5034738;28;20207;-91
2021/05/31 04:04:40;;;;;;;2.77;1.70;;;18.40;99.90;;;;;;5034609;28;20204;-91
2021/05/31 04:12:48;;;;;;;5.43;2.07;;;18.00;99.90;;;;;;5061258;28;20219;-90
2021/05/31 04:15:18;;;;;;;3.83;2.17;;;17.80;99.90;;;;;;5066460;28;20237;-90
2021/05/31 04:17:50;;;;;;;3.83;1.87;;;17.70;99.90;;;;;;5044548;28;20232;-91
2021/05/31 04:20:23;;;;;;;6.67;3.47;;;17.60;99.90;;;;;;5036811;28;20216;-88
2021/05/31 04:22:54;;;;;;;4.43;2.33;;;17.50;99.90;;;;;;5035743;28;20237;-90
2021/05/31 04:25:25;;;;;;;6.97;2.40;;;17.50;99.90;;;;;;5035902;28;20244;-89
2021/05/31 04:27:56;;;;;;;2.93;2.43;;;17.40;99.90;;;;;;5047358;28;20201;-89
2021/05/31 04:30:27;;;;;;;2.53;1.80;;;17.30;99.90;;;;;;5038614;28;20268;-89
2021/05/31 04:33:00;;;;;;;4.10;2.10;;;17.20;99.90;;;;;;5039376;28;20217;-89
2021/05/31 04:35:31;;;;;;;4.63;2.30;;;17.10;99.90;;;;;;5039907;28;20654;-92
2021/05/31 04:38:02;;;;;;;3.40;2.00;;;17.10;99.90;;;;;;4701117;28;10000085;-95
2021/05/31 04:40:35;;;;;;;5.27;2.03;;;17.00;99.90;;;;;;5039014;28;20237;-96
2021/05/31 04:43:06;;;;;;;3.17;2.20;;;16.90;99.90;;;;;;5042323;28;20228;-96
2021/05/31 04:45:36;;;;;;;4.03;2.40;;;16.80;99.90;;;;;;5052558;28;20212;-92
2021/05/31 04:48:11;;;;;;;2.57;2.30;;;16.80;99.90;;;;;;5039071;28;20204;-92
2021/05/31 04:50:55;;;;;;;4.70;2.30;;;16.70;99.90;;;;;;5039266;28;20734;-91
2021/05/31 04:53:30;;;;;;;2.87;2.20;;;16.60;99.90;;;;;;5040200;28;20280;-92
2021/05/31 04:56:05;;;;;;;4.17;2.43;;;16.50;99.90;;;;;;5038992;28;20212;-92
2021/05/31 04:58:35;;;;;;;4.33;3.27;;;16.50;99.90;;;;;;5047615;28;20650;-90
2021/05/31 05:01:06;;;;;;;3.60;2.43;;;16.50;99.90;;;;;;5024023;28;20275;-91
2021/05/31 05:03:38;;;;;;;6.27;3.07;;;16.40;99.90;;;;;;5056896;28;20231;-92
2021/05/31 05:06:13;;;;;;;14.27;7.53;;;16.40;99.90;;;;;;5061694;28;20239;-91
2021/05/31 05:08:45;;;;;;;5.37;2.87;;;16.40;99.90;;;;;;5074677;28;20200;-91
2021/05/31 05:11:15;;;;;;;3.90;2.07;;;16.30;99.90;;;;;;5075682;28;20220;-90
2021/05/31 05:13:46;;;;;;;4.73;1.90;;;16.30;99.90;;;;;;5047856;28;20209;-90
2021/05/31 05:16:17;;;;;;;2.30;1.77;;;16.30;99.90;;;;;;5039535;28;20213;-92
2021/05/31 05:18:51;;;;;;;3.03;1.87;;;16.20;99.90;;;;;;5041830;28;20201;-92
2021/05/31 05:21:23;;;;;;;2.07;1.70;;;16.10;99.90;;;;;;5040370;28;20291;-92
2021/05/31 05:23:54;;;;;;;3.03;1.97;;;16.10;99.90;;;;;;5044678;28;20264;-90
2021/05/31 05:26:25;;;;;;;5.07;2.00;;;16.00;99.90;;;;;;5043047;28;20259;-92
2021/05/31 05:28:55;;;;;;;2.47;1.67;;;16.00;99.90;;;;;;5044452;28;20727;-92
2021/05/31 05:31:26;;;;;;;4.73;1.70;;;15.90;99.90;;;;;;5057962;28;20275;-92
2021/05/31 05:34:02;;;;;;;3.00;1.80;;;15.80;99.90;;;;;;5056998;28;20214;-91
2021/05/31 05:36:42;;;;;;;2.63;1.97;;;15.70;99.90;;;;;;5057828;28;20243;-91
2021/05/31 05:42:17;;;;;;;2.10;1.70;;;15.60;99.90;;;;;;5021970;28;20280;-91
2021/05/31 05:47:46;;;;;;;2.90;1.80;;;15.50;99.90;;;;;;5043062;28;20259;-91
2021/05/31 05:50:23;;;;;;;3.17;1.90;;;15.50;99.90;;;;;;5041374;28;20212;-91
2021/05/31 05:52:53;;;;;;;3.77;2.00;;;15.50;99.90;;;;;;5062200;28;20269;-90
2021/05/31 05:55:24;;;;;;;2.30;1.93;;;15.40;99.90;;;;;;5058016;28;20274;-91
2021/05/31 05:57:55;;;;;;;2.10;1.77;;;15.30;99.90;;;;;;5038994;28;20652;-91
2021/05/31 06:00:28;;;;;;;2.33;2.03;;;15.30;99.90;;;;;;5038209;28;20217;-91
2021/05/31 06:02:59;;;;;;;2.93;1.97;;;15.20;99.90;;;;;;5037704;28;20636;-91
2021/05/31 06:05:31;;;;;;;2.47;2.03;;;15.30;99.90;;;;;;5043889;28;20208;-92
2021/05/31 06:08:02;;;;;;;3.03;2.17;;;15.20;99.90;;;;;;5044256;28;20910;-91
2021/05/31 06:10:33;;;;;;;2.47;2.17;;;15.10;99.90;;;;;;5037907;28;20291;-92
2021/05/31 06:13:05;;;;;;;3.83;1.90;;;15.10;99.90;;;;;;5044650;28;20217;-91
2021/05/31 06:15:36;;;;;;;2.50;1.90;;;15.00;99.90;;;;;;5067748;28;20231;-92
2021/05/31 06:18:09;;;;;;;2.50;2.20;;;15.00;99.90;;;;;;5044155;28;20212;-92
2021/05/31 06:20:43;;;;;;;2.20;2.00;;;15.00;99.90;;;;;;5042121;28;20237;-93
2021/05/31 06:23:13;;;;;;;2.60;2.00;;;15.00;99.90;;;;;;5039551;28;20236;-92
2021/05/31 06:25:44;;;;;;;2.53;2.00;;;14.90;99.90;;;;;;5038615;28;20672;-91
2021/05/31 06:28:15;;;;;;;3.60;2.20;;;14.90;99.90;;;;;;5039664;28;20271;-91
2021/05/31 06:30:45;;;;;;;3.53;2.13;;;14.80;99.90;;;;;;5030262;28;20201;-92
2021/05/31 06:33:18;;;;;;;3.40;2.27;;;14.80;99.90;;;;;;5041815;28;20190;-91
2021/05/31 06:35:52;;;;;;;2.30;1.80;;;14.80;99.90;;;;;;5039639;28;20185;-92
2021/05/31 06:38:23;;;;;;;2.60;1.73;;;14.80;99.90;;;;;;5065710;28;20228;-92
2021/05/31 06:40:54;;;;;;;2.70;2.20;;;14.70;99.90;;;;;;5059635;28;20231;-91
2021/05/31 06:43:24;;;;;;;2.50;2.27;;;14.70;99.90;;;;;;5064705;28;20250;-91
2021/05/31 06:45:55;;;;;;;4.07;2.00;;;14.70;99.90;;;;;;5080869;28;20273;-91
2021/05/31 06:48:26;;;;;;;2.27;1.77;;;14.60;99.90;;;;;;5081799;28;20228;-91
2021/05/31 06:50:58;;;;;;;3.77;2.17;;;14.60;99.90;;;;;;5046007;28;20666;-92
2021/05/31 06:53:29;;;;;;;3.13;2.00;;;14.50;99.90;;;;;;5039590;28;20216;-91
2021/05/31 06:56:01;;;;;;;2.53;2.00;;;14.50;99.90;;;;;;5042575;28;20205;-91
2021/05/31 06:58:31;;;;;;;2.60;2.10;;;14.50;99.90;;;;;;5064749;28;20189;-91
2021/05/31 07:01:02;;;;;;;2.27;2.07;;;14.40;99.90;;;;;;5065646;28;20209;-92
2021/05/31 07:03:34;;;;;;;6.00;2.60;;;14.40;99.90;;;;;;5056947;28;20213;-92
2021/05/31 07:06:11;;;;;;;3.13;2.40;;;14.40;99.90;;;;;;5070599;28;20200;-90
2021/05/31 07:08:43;;;;;;;3.37;2.17;;;14.40;99.90;;;;;;5041087;28;20216;-92
2021/05/31 07:11:16;;;;;;;3.83;2.43;;;14.40;99.90;;;;;;5055627;28;20260;-92
2021/05/31 07:13:46;;;;;;;4.60;2.23;;;14.30;99.90;;;;;;5038677;28;20216;-91
2021/05/31 07:16:17;;;;;;;3.70;2.30;;;14.30;99.90;;;;;;5045393;28;20224;-92
2021/05/31 07:18:48;;;;;;;2.40;1.90;;;14.30;99.90;;;;;;5056549;28;20262;-90
2021/05/31 07:21:24;;;;;;;2.53;2.17;;;14.20;99.90;;;;;;5057489;28;20204;-91
2021/05/31 07:26:24;;;;;;;3.20;2.07;;;14.10;99.90;;;;;;4997999;28;20286;-91
2021/05/31 07:28:56;;;;;;;3.50;2.30;;;14.00;99.90;;;;;;4996453;28;20237;-93
2021/05/31 07:31:27;;;;;;;4.53;2.40;;;14.00;99.90;;;;;;5024593;28;20202;-90
2021/05/31 07:33:58;;;;;;;2.83;2.43;;;13.90;99.90;;;;;;5010936;28;20562;-90
2021/05/31 07:36:32;;;;;;;4.60;3.00;;;13.90;99.90;;;;;;4997487;28;20293;-90
2021/05/31 07:39:04;;;;;;;2.90;2.20;;;13.90;99.90;;;;;;4997058;28;20269;-90
2021/05/31 07:41:35;;;;;;;3.97;2.60;;;13.90;99.90;;;;;;4999643;28;20190;-90
2021/05/31 07:44:14;;;;;;;3.90;2.23;;;13.80;99.90;;;;;;5015708;28;20214;-90
2021/05/31 07:46:56;;;;;;;3.47;2.63;;;13.80;99.90;;;;;;5015679;28;20257;-90
2021/05/31 07:49:27;;;;;;;5.00;2.67;;;13.70;99.90;;;;;;5003056;28;20194;-91
2021/05/31 07:54:48;;;;;;;2.87;2.30;;;13.80;99.90;;;;;;4988569;28;20228;-90
2021/05/31 07:57:21;;;;;;;5.33;2.33;;;13.80;99.90;;;;;;5001880;28;20210;-89
2021/05/31 07:59:56;;;;;;;5.03;2.53;;;13.80;99.90;;;;;;5006329;28;20262;-90
2021/05/31 08:02:30;;;;;;;2.47;2.27;;;13.80;99.90;;;;;;5034529;28;20213;-90
2021/05/31 08:05:01;;;;;;;4.07;2.70;;;13.80;99.90;;;;;;5031034;28;20224;-92
2021/05/31 08:07:35;;;;;;;2.83;2.33;;;13.80;99.90;;;;;;5015896;28;20296;-91
2021/05/31 08:10:08;;;;;;;4.53;2.50;;;13.70;99.90;;;;;;5008833;28;20222;-92
2021/05/31 08:12:39;;;;;;;4.23;2.40;;;13.70;99.90;;;;;;5008872;28;20622;-90
2021/05/31 08:15:13;;;;;;;3.07;2.43;;;13.60;99.90;;;;;;5015997;28;20553;-90
2021/05/31 08:17:44;;;;;;;5.20;2.97;;;13.70;99.90;;;;;;5015626;28;20204;-90
2021/05/31 08:20:16;;;;;;;4.87;2.50;;;13.60;99.90;;;;;;4997400;28;20213;-90
2021/05/31 08:22:49;;;;;;;3.87;2.90;;;13.60;99.90;;;;;;5015725;28;20240;-90
2021/05/31 08:25:20;;;;;;;6.17;2.97;;;13.60;99.90;;;;;;5015442;28;20245;-89
2021/05/31 08:27:52;;;;;;;5.53;2.77;;;13.50;99.90;;;;;;5027223;28;20251;-90
2021/05/31 08:30:24;;;;;;;4.73;2.50;;;13.50;99.90;;;;;;5017451;28;20268;-90
2021/05/31 08:32:54;;;;;;;3.10;2.70;;;13.50;99.90;;;;;;5034831;28;20307;-90
2021/05/31 08:35:26;;;;;;;3.07;2.57;;;13.50;99.90;;;;;;5034841;28;20627;-90
2021/05/31 08:37:58;;;;;;;3.77;2.70;;;13.50;99.90;;;;;;5035339;28;20233;-90
2021/05/31 08:40:29;;;;;;;5.03;2.77;;;13.50;99.90;;;;;;5035160;28;20319;-90
2021/05/31 08:43:00;;;;;;;3.17;2.60;;;13.50;99.90;;;;;;5035155;28;20678;-90
2021/05/31 08:45:31;;;;;;;4.07;2.77;;;13.50;99.90;;;;;;5035317;28;20259;-91
2021/05/31 08:48:02;;;;;;;3.90;2.60;;;13.50;99.90;;;;;;5018073;28;20236;-91
2021/05/31 08:50:35;;;;;;;3.77;2.70;;;13.50;99.90;;;;;;5034750;28;20205;-90
2021/05/31 08:53:08;;;;;;;4.90;2.73;;;13.50;99.90;;;;;;5032565;28;20232;-90
2021/05/31 08:55:39;;;;;;;3.37;2.83;;;13.40;99.90;;;;;;5016017;28;20205;-90
2021/05/31 08:58:10;;;;;;;3.97;2.90;;;13.40;99.90;;;;;;5031444;28;20194;-90
2021/05/31 09:00:41;;;;;;;3.40;3.10;;;13.40;99.90;;;;;;5024999;28;20198;-91
2021/05/31 09:03:12;;;;;;;3.13;2.80;;;13.40;99.90;;;;;;5011408;28;20189;-91
2021/05/31 09:05:45;;;;;;;4.33;2.80;;;13.40;99.90;;;;;;4986773;28;20265;-91
2021/05/31 09:08:19;;;;;;;4.63;3.17;;;13.40;99.90;;;;;;4995951;28;20238;-91
2021/05/31 09:10:54;;;;;;;5.47;3.13;;;13.30;99.90;;;;;;4995147;28;20296;-91
2021/05/31 09:13:30;;;;;;;5.90;3.50;;;13.30;99.90;;;;;;4996588;28;20281;-90
2021/05/31 09:16:08;;;;;;;3.67;3.00;;;13.20;99.90;;;;;;4999913;28;20234;-90
2021/05/31 09:18:40;;;;;;;6.10;3.03;;;13.20;99.90;;;;;;4999700;28;20305;-91
2021/05/31 09:21:17;;;;;;;3.87;3.10;;;13.20;99.90;;;;;;4981620;28;20210;-90
2021/05/31 09:23:55;;;;;;;4.63;3.23;;;13.10;99.90;;;;;;4998823;28;20237;-91
2021/05/31 09:26:27;;;;;;;4.13;3.20;;;13.10;99.90;;;;;;4982291;28;20250;-91
2021/05/31 09:28:59;;;;;;;4.70;3.33;;;13.10;99.90;;;;;;4999733;28;20238;-91
2021/05/31 09:31:31;;;;;;;6.43;3.50;;;13.10;99.90;;;;;;4998768;28;20653;-91
2021/05/31 09:34:04;;;;;;;3.30;2.87;;;13.00;99.90;;;;;;4999849;28;20218;-90
2021/05/31 09:36:48;;;;;;;4.27;3.13;;;13.00;99.90;;;;;;4999368;28;20210;-89
2021/05/31 09:39:30;;;;;;;4.97;3.90;;;13.00;99.90;;;;;;5001272;28;20309;-90
2021/05/31 09:42:05;;;;;;;3.67;3.00;;;13.00;99.90;;;;;;5000575;28;20238;-90
2021/05/31 09:44:36;;;;;;;5.63;3.43;;;13.00;99.90;;;;;;5001443;28;20210;-90
2021/05/31 09:47:06;;;;;;;5.53;3.10;;;13.00;99.90;;;;;;5000421;28;20273;-90
2021/05/31 09:49:38;;;;;;;4.70;2.90;;;12.90;99.90;;;;;;5000314;28;20213;-92
2021/05/31 09:52:10;;;;;;;4.93;3.57;;;12.90;99.90;;;;;;5001107;28;20241;-90
2021/05/31 09:54:45;;;;;;;5.13;3.20;;;12.90;99.90;;;;;;5001226;28;20222;-90
2021/05/31 09:57:19;;;;;;;5.07;3.17;;;12.80;99.90;;;;;;5009101;28;20202;-90
2021/05/31 09:59:52;;;;;;;6.33;2.83;;;12.80;99.90;;;;;;5008021;28;20214;-91
2021/05/31 10:02:37;;;;;;;3.67;3.30;;;12.80;99.90;;;;;;4990741;28;20387;-90
2021/05/31 10:05:16;;;;;;;4.33;3.30;;;12.90;99.90;;;;;;5008447;28;20317;-90
2021/05/31 10:07:53;;;;;;;4.47;3.20;;;12.80;99.90;;;;;;4986838;28;20324;-91
2021/05/31 10:10:26;;;;;;;3.63;3.20;;;12.80;99.90;;;;;;4997100;28;20221;-91
2021/05/31 10:12:58;;;;;;;5.20;3.47;;;12.80;99.90;;;;;;4997501;28;20266;-91
2021/05/31 10:15:31;;;;;;;4.90;3.40;;;12.80;99.90;;;;;;4997412;28;20214;-91
2021/05/31 10:18:02;;;;;;;4.43;3.37;;;12.70;99.90;;;;;;4997363;28;20210;-91
2021/05/31 10:20:34;;;;;;;4.47;3.40;;;12.70;99.90;;;;;;4996612;28;20233;-91
2021/05/31 10:23:05;;;;;;;5.27;3.40;;;12.70;99.90;;;;;;4997554;28;20206;-91
2021/05/31 10:25:42;;;;;;;4.63;3.57;;;12.70;99.90;;;;;;4996701;28;20256;-90
2021/05/31 10:28:16;;;;;;;4.37;3.40;;;12.70;99.90;;;;;;4992963;28;20264;-90
2021/05/31 10:30:49;;;;;;;3.73;3.30;;;12.70;99.90;;;;;;5018645;28;20654;-90
2021/05/31 10:33:22;;;;;;;4.63;3.50;;;12.70;99.90;;;;;;5020550;28;20213;-90
2021/05/31 10:35:58;;;;;;;7.17;3.53;;;12.60;99.90;;;;;;5018021;28;20276;-89
2021/05/31 10:38:31;;;;;;;4.77;3.53;;;12.60;99.90;;;;;;5016648;28;20292;-90
2021/05/31 10:41:13;;;;;;;5.67;3.40;;;12.60;99.90;;;;;;5015329;28;20243;-89
2021/05/31 10:43:49;;;;;;;4.20;3.20;;;12.60;99.90;;;;;;5016322;28;20228;-90
2021/05/31 10:46:21;;;;;;;3.80;3.37;;;12.50;99.90;;;;;;4998762;28;20232;-90
2021/05/31 10:48:54;;;;;;;5.33;3.60;;;12.50;99.90;;;;;;5023851;28;20264;-90
2021/05/31 10:51:26;;;;;;;4.43;3.00;;;12.50;99.90;;;;;;5018553;28;20252;-90
2021/05/31 10:53:56;;;;;;;4.60;3.43;;;12.50;99.90;;;;;;5036404;28;20297;-91
2021/05/31 10:56:29;;;;;;;5.87;3.30;;;12.40;99.90;;;;;;5035989;28;20197;-90
2021/05/31 10:59:00;;;;;;;5.17;3.30;;;12.40;99.90;;;;;;5036198;28;20295;-90
2021/05/31 11:01:42;;;;;;;4.40;3.37;;;12.40;99.90;;;;;;5035244;28;20284;-89
2021/05/31 11:04:23;;;;;;;4.20;3.50;;;12.40;99.90;;;;;;4996938;28;20354;-91
2021/05/31 11:06:58;;;;;;;4.20;3.10;;;12.30;99.90;;;;;;5016015;28;20629;-90
2021/05/31 11:09:32;;;;;;;5.43;3.50;;;12.30;99.90;;;;;;4999566;28;20229;-90
2021/05/31 11:12:07;;;;;;;4.00;3.17;;;12.30;99.90;;;;;;5016309;28;20262;-90
2021/05/31 11:14:40;;;;;;;4.67;3.30;;;12.30;99.90;;;;;;5018056;28;20205;-91
2021/05/31 11:17:12;;;;;;;3.93;2.70;;;12.30;99.90;;;;;;5037325;28;20209;-90
2021/05/31 11:19:45;;;;;;;5.13;3.30;;;12.30;99.90;;;;;;5036398;28;20279;-92
2021/05/31 11:22:17;;;;;;;6.20;3.13;;;12.30;99.90;;;;;;5029391;28;20212;-91
2021/05/31 11:24:52;;;;;;;3.30;2.97;;;12.20;99.90;;;;;;5001523;28;20722;-89
2021/05/31 11:27:29;;;;;;;5.37;3.87;;;12.20;99.90;;;;;;5002258;28;20216;-91
2021/05/31 11:30:00;;;;;;;5.63;3.13;;;12.20;99.90;;;;;;4980415;28;20634;-91
2021/05/31 11:32:31;;;;;;;4.63;3.00;;;12.20;99.90;;;;;;4996661;28;20206;-91
2021/05/31 11:35:04;;;;;;;3.47;3.17;;;12.20;99.90;;;;;;4996190;28;20598;-90
2021/05/31 11:37:55;;;;;;;4.60;3.20;;;12.10;99.90;;;;;;4995265;28;20293;-90
2021/05/31 11:40:28;;;;;;;4.37;3.20;;;12.10;99.90;;;;;;4995325;28;20301;-90
2021/05/31 11:43:03;;;;;;;4.03;3.00;;;12.10;99.90;;;;;;4996276;28;20297;-91
2021/05/31 11:45:37;;;;;;;3.97;2.63;;;12.10;99.90;;;;;;4996021;28;20290;-93
2021/05/31 11:48:12;;;;;;;4.47;3.53;;;12.10;99.90;;;;;;4995705;28;20644;-90
2021/05/31 11:50:43;;;;;;;6.07;3.17;;;12.00;99.90;;;;;;4995241;28;20256;-90
2021/05/31 11:53:16;;;;;;;5.10;2.80;;;12.00;99.90;;;;;;4996107;28;20230;-90
2021/05/31 11:55:48;;;;;;;3.83;2.67;;;12.00;99.90;;;;;;4979124;28;20649;-90
2021/05/31 11:58:21;;;;;;;6.77;3.20;;;11.90;99.90;;;;;;4996523;28;20600;-90
2021/05/31 12:00:52;;;;;;;7.00;3.10;;;11.80;99.90;;;;;;4995665;28;20248;-90
2021/05/31 12:03:25;;;;;;;6.63;3.37;;;11.90;99.90;;;;;;4979887;28;20214;-90
2021/05/31 12:05:56;;;;;;;4.23;3.33;;;11.80;99.90;;;;;;4999696;28;20214;-90
2021/05/31 12:08:27;;;;;;;3.60;2.83;;;11.80;99.90;;;;;;5018398;28;20244;-91
2021/05/31 12:10:57;;;;;;;5.03;3.30;;;11.80;99.90;;;;;;5016859;28;20573;-91
2021/05/31 12:13:35;;;;;;;4.73;3.23;;;11.70;99.90;;;;;;5010176;28;20238;-91
2021/05/31 12:16:16;;;;;;;5.53;3.10;;;11.70;99.90;;;;;;4996613;28;20272;-91
2021/05/31 12:18:47;;;;;;;4.03;3.13;;;11.70;99.90;;;;;;4997032;28;20260;-90
2021/05/31 12:21:18;;;;;;;5.30;3.60;;;11.70;99.90;;;;;;4997001;28;20225;-91
2021/05/31 12:23:51;;;;;;;7.23;4.10;;;11.70;99.90;;;;;;4980761;28;20240;-91
2021/05/31 12:26:23;;;;;;;4.87;3.57;;;11.70;99.90;;;;;;4983331;28;20229;-90
2021/05/31 12:28:55;;;;;;;6.57;3.53;;;11.70;99.90;;;;;;5049136;28;20227;-91
2021/05/31 12:31:34;;;;;;;7.60;3.37;;;11.70;99.90;;;;;;5055309;28;20223;-91
2021/05/31 12:34:05;;;;;;;4.43;3.57;;;11.70;99.90;;;;;;5055765;28;20347;-91
2021/05/31 12:36:36;;;;;;;3.80;3.40;;;11.70;99.90;;;;;;5056797;28;20204;-90
2021/05/31 12:39:08;;;;;;;6.43;3.60;;;11.70;99.90;;;;;;5056690;28;20212;-89
2021/05/31 12:41:39;;;;;;;6.77;3.60;;;11.70;99.90;;;;;;5048008;28;20200;-90
2021/05/31 12:44:12;;;;;;;6.13;3.20;;;11.70;99.90;;;;;;5020969;28;20607;-90
2021/05/31 12:46:45;;;;;;;6.67;3.50;;;11.70;99.90;;;;;;5000844;28;20673;-92
2021/05/31 12:49:25;;;;;;;5.53;3.57;;;11.70;99.90;;;;;;5003768;28;20241;-91
2021/05/31 12:52:31;;;;;;;6.67;3.23;;;11.70;99.90;;;;;;5010390;28;20202;-90
2021/05/31 12:55:04;;;;;;;5.03;3.67;;;11.80;99.90;;;;;;4999183;28;20214;-91
2021/05/31 12:57:37;;;;;;;4.03;3.33;;;11.80;99.90;;;;;;4999081;28;20640;-90
2021/05/31 13:00:15;;;;;;;4.20;3.10;;;11.80;99.90;;;;;;4999684;28;20640;-90
2021/05/31 13:02:48;;;;;;;3.90;2.90;;;11.90;99.90;;;;;;5006875;28;20210;-90
2021/05/31 13:05:21;;;;;;;4.47;2.97;;;11.90;99.90;;;;;;5013613;28;20206;-91
2021/05/31 13:07:51;;;;;;;6.77;3.47;;;12.00;99.90;;;;;;5011214;28;20636;-91
2021/05/31 13:10:24;;;;;;;4.17;3.47;;;12.00;99.90;;;;;;5017075;28;20354;-91
2021/05/31 13:12:58;;;;;;;3.67;3.20;;;12.00;99.90;;;;;;5017823;28;20212;-90
2021/05/31 13:15:42;;;;;;;4.83;3.00;;;12.00;99.90;;;;;;5018274;28;20344;-90
2021/05/31 13:18:20;;;;;;;4.37;3.20;;;12.10;99.90;;;;;;5000878;28;20244;-91
2021/05/31 13:20:52;;;;;;;3.77;3.37;;;12.10;99.90;;;;;;5018089;28;20270;-91
2021/05/31 13:23:24;;;;;;;3.67;3.00;;;12.20;99.90;;;;;;5018051;28;20205;-90
2021/05/31 13:25:56;;;;;;;7.33;3.20;;;12.30;99.90;;;;;;5001078;28;20308;-91
2021/05/31 13:28:32;;;;;;;4.00;3.10;;;12.20;99.90;;;;;;5018358;28;20225;-91
2021/05/31 13:31:07;;;;;;;4.53;3.30;;;12.30;99.90;;;;;;5003205;28;20273;-90
2021/05/31 13:33:44;;;;;;;4.20;2.80;;;12.30;99.90;;;;;;5013437;28;20233;-91
2021/05/31 13:36:18;;;;;;;4.60;3.23;;;12.40;99.90;;;;;;5019162;28;20201;-91
2021/05/31 13:38:49;;;;;;;4.27;3.03;;;12.40;99.90;;;;;;5016573;28;20202;-91
2021/05/31 13:41:20;;;;;;;4.20;2.90;;;12.50;99.90;;;;;;5000618;28;20206;-91
2021/05/31 13:43:54;;;;;;;3.97;3.50;;;12.60;99.90;;;;;;5009558;28;20237;-91
2021/05/31 13:46:26;;;;;;;5.90;3.30;;;12.60;99.90;;;;;;5000300;28;20202;-90
2021/05/31 13:48:57;;;;;;;3.33;3.03;;;12.70;99.90;;;;;;5018730;28;20767;-90
2021/05/31 13:51:27;;;;;;;4.70;3.57;;;12.70;99.90;;;;;;5000126;28;20301;-90
2021/05/31 13:53:58;;;;;;;5.93;3.00;;;12.70;99.90;;;;;;5017744;28;20234;-90
2021/05/31 13:56:29;;;;;;;5.47;3.43;;;12.70;99.90;;;;;;5017612;28;20294;-90
2021/05/31 13:58:59;;;;;;;5.47;3.63;;;12.80;99.90;;;;;;5015810;28;20723;-90
2021/05/31 14:01:31;;;;;;;3.90;3.17;;;12.80;99.90;;;;;;5016304;28;20248;-90
2021/05/31 14:04:02;;;;;;;3.63;3.00;;;12.80;99.90;;;;;;4999998;28;20899;-90
2021/05/31 14:06:33;;;;;;;3.10;2.80;;;12.90;99.90;;;;;;5016704;28;20300;-91
2021/05/31 14:09:05;;;;;;;5.97;2.97;;;12.90;99.90;;;;;;5016604;28;20305;-91